sensor_id;sensor_type;location;lat;lon;timestamp;P1;durP1;ratioP1;P2;durP2;ratioP2
10031;SDS011;5056;44.272;19.892;2023-03-03T00:02:09;74.87;;;47.70;;
10031;SDS011;5056;44.272;19.892;2023-03-03T00:04:36;60.83;;;42.33;;
10031;SDS011;5056;44.272;19.892;2023-03-03T00:07:13;51.67;;;36.30;;
10031;SDS011;5056;44.272;19.892;2023-03-03T00:09:45;68.63;;;44.97;;
10031;SDS011;5056;44.272;19.892;2023-03-03T00:12:17;84.13;;;52.77;;
10031;SDS011;5056;44.272;19.892;2023-03-03T00:14:50;118.10;;;70.63;;
10031;SDS011;5056;44.272;19.892;2023-03-03T00:17:20;127.73;;;68.57;;
10031;SDS011;5056;44.272;19.892;2023-03-03T00:25:57;114.37;;;62.20;;
10031;SDS011;5056;44.272;19.892;2023-03-03T00:28:25;114.87;;;62.00;;
10031;SDS011;5056;44.272;19.892;2023-03-03T00:30:58;115.87;;;61.20;;
10031;SDS011;5056;44.272;19.892;2023-03-03T00:33:28;106.40;;;61.43;;
10031;SDS011;5056;44.272;19.892;2023-03-03T00:36:09;101.47;;;59.67;;
10031;SDS011;5056;44.272;19.892;2023-03-03T00:38:47;86.27;;;52.27;;
10031;SDS011;5056;44.272;19.892;2023-03-03T00:41:23;86.47;;;52.27;;
10031;SDS011;5056;44.272;19.892;2023-03-03T00:43:51;75.97;;;48.83;;
10031;SDS011;5056;44.272;19.892;2023-03-03T00:46:21;99.97;;;64.13;;
10031;SDS011;5056;44.272;19.892;2023-03-03T00:48:48;77.90;;;51.97;;
10031;SDS011;5056;44.272;19.892;2023-03-03T00:51:25;66.43;;;42.60;;
10031;SDS011;5056;44.272;19.892;2023-03-03T00:53:55;51.67;;;35.90;;
10031;SDS011;5056;44.272;19.892;2023-03-03T00:56:23;53.47;;;36.83;;
10031;SDS011;5056;44.272;19.892;2023-03-03T00:58:50;54.80;;;36.00;;
10031;SDS011;5056;44.272;19.892;2023-03-03T01:01:18;63.07;;;40.73;;
10031;SDS011;5056;44.272;19.892;2023-03-03T01:03:46;79.00;;;48.67;;
10031;SDS011;5056;44.272;19.892;2023-03-03T01:08:45;55.07;;;37.80;;
10031;SDS011;5056;44.272;19.892;2023-03-03T01:11:12;52.00;;;36.77;;
10031;SDS011;5056;44.272;19.892;2023-03-03T01:13:41;54.43;;;39.47;;
10031;SDS011;5056;44.272;19.892;2023-03-03T01:16:09;53.33;;;38.50;;
10031;SDS011;5056;44.272;19.892;2023-03-03T01:18:36;65.00;;;42.80;;
10031;SDS011;5056;44.272;19.892;2023-03-03T01:21:07;71.03;;;47.23;;
10031;SDS011;5056;44.272;19.892;2023-03-03T01:23:34;63.57;;;44.00;;
10031;SDS011;5056;44.272;19.892;2023-03-03T01:26:01;64.07;;;42.53;;
10031;SDS011;5056;44.272;19.892;2023-03-03T01:28:29;62.63;;;44.50;;
10031;SDS011;5056;44.272;19.892;2023-03-03T01:30:59;58.57;;;42.60;;
10031;SDS011;5056;44.272;19.892;2023-03-03T01:33:26;56.90;;;39.77;;
10031;SDS011;5056;44.272;19.892;2023-03-03T01:35:55;55.37;;;38.57;;
10031;SDS011;5056;44.272;19.892;2023-03-03T01:38:25;56.47;;;38.43;;
10031;SDS011;5056;44.272;19.892;2023-03-03T01:40:52;61.67;;;40.93;;
10031;SDS011;5056;44.272;19.892;2023-03-03T01:43:19;66.47;;;43.40;;
10031;SDS011;5056;44.272;19.892;2023-03-03T01:49:05;53.73;;;39.03;;
10031;SDS011;5056;44.272;19.892;2023-03-03T01:51:34;53.43;;;35.67;;
10031;SDS011;5056;44.272;19.892;2023-03-03T01:54:05;62.00;;;36.93;;
10031;SDS011;5056;44.272;19.892;2023-03-03T01:56:38;58.07;;;38.57;;
10031;SDS011;5056;44.272;19.892;2023-03-03T01:59:06;54.17;;;38.47;;
10031;SDS011;5056;44.272;19.892;2023-03-03T02:01:35;52.83;;;36.50;;
10031;SDS011;5056;44.272;19.892;2023-03-03T02:04:02;51.27;;;35.73;;
10031;SDS011;5056;44.272;19.892;2023-03-03T02:06:30;55.17;;;36.93;;
10031;SDS011;5056;44.272;19.892;2023-03-03T02:09:01;52.37;;;36.97;;
10031;SDS011;5056;44.272;19.892;2023-03-03T02:11:32;53.20;;;37.63;;
10031;SDS011;5056;44.272;19.892;2023-03-03T02:14:00;51.80;;;36.33;;
10031;SDS011;5056;44.272;19.892;2023-03-03T02:16:27;49.87;;;36.40;;
10031;SDS011;5056;44.272;19.892;2023-03-03T02:18:55;50.80;;;34.90;;
10031;SDS011;5056;44.272;19.892;2023-03-03T02:21:22;46.37;;;33.07;;
10031;SDS011;5056;44.272;19.892;2023-03-03T02:23:52;47.90;;;33.47;;
10031;SDS011;5056;44.272;19.892;2023-03-03T02:26:25;50.83;;;36.03;;
10031;SDS011;5056;44.272;19.892;2023-03-03T02:28:53;46.97;;;33.80;;
10031;SDS011;5056;44.272;19.892;2023-03-03T02:31:21;47.43;;;33.90;;
10031;SDS011;5056;44.272;19.892;2023-03-03T02:33:50;48.77;;;35.53;;
10031;SDS011;5056;44.272;19.892;2023-03-03T02:36:19;52.97;;;35.50;;
10031;SDS011;5056;44.272;19.892;2023-03-03T02:38:48;54.43;;;37.80;;
10031;SDS011;5056;44.272;19.892;2023-03-03T02:41:21;48.93;;;34.57;;
10031;SDS011;5056;44.272;19.892;2023-03-03T02:43:55;51.43;;;34.37;;
10031;SDS011;5056;44.272;19.892;2023-03-03T02:46:25;51.43;;;34.73;;
10031;SDS011;5056;44.272;19.892;2023-03-03T02:48:52;48.83;;;34.67;;
10031;SDS011;5056;44.272;19.892;2023-03-03T02:51:20;50.93;;;33.93;;
10031;SDS011;5056;44.272;19.892;2023-03-03T02:53:47;53.97;;;37.57;;
10031;SDS011;5056;44.272;19.892;2023-03-03T02:56:14;59.57;;;41.97;;
10031;SDS011;5056;44.272;19.892;2023-03-03T02:58:44;58.37;;;38.60;;
10031;SDS011;5056;44.272;19.892;2023-03-03T03:01:10;59.57;;;41.53;;
10031;SDS011;5056;44.272;19.892;2023-03-03T03:03:37;54.77;;;39.03;;
10031;SDS011;5056;44.272;19.892;2023-03-03T03:06:04;60.93;;;41.03;;
10031;SDS011;5056;44.272;19.892;2023-03-03T03:08:33;70.13;;;45.03;;
10031;SDS011;5056;44.272;19.892;2023-03-03T03:11:01;61.00;;;41.00;;
10031;SDS011;5056;44.272;19.892;2023-03-03T03:13:30;71.23;;;44.00;;
10031;SDS011;5056;44.272;19.892;2023-03-03T03:15:59;69.90;;;42.50;;
10031;SDS011;5056;44.272;19.892;2023-03-03T03:18:26;65.90;;;42.73;;
10031;SDS011;5056;44.272;19.892;2023-03-03T03:20:53;61.93;;;41.03;;
10031;SDS011;5056;44.272;19.892;2023-03-03T03:23:20;59.47;;;39.80;;
10031;SDS011;5056;44.272;19.892;2023-03-03T03:25:47;57.77;;;39.40;;
10031;SDS011;5056;44.272;19.892;2023-03-03T03:28:15;52.30;;;37.57;;
10031;SDS011;5056;44.272;19.892;2023-03-03T03:30:43;51.30;;;36.80;;
10031;SDS011;5056;44.272;19.892;2023-03-03T03:33:12;50.60;;;34.23;;
10031;SDS011;5056;44.272;19.892;2023-03-03T03:35:39;51.87;;;37.03;;
10031;SDS011;5056;44.272;19.892;2023-03-03T03:38:12;53.43;;;35.53;;
10031;SDS011;5056;44.272;19.892;2023-03-03T03:40:39;55.80;;;38.23;;
10031;SDS011;5056;44.272;19.892;2023-03-03T03:43:06;48.97;;;36.07;;
10031;SDS011;5056;44.272;19.892;2023-03-03T03:45:33;53.43;;;37.87;;
10031;SDS011;5056;44.272;19.892;2023-03-03T03:48:01;47.93;;;33.80;;
10031;SDS011;5056;44.272;19.892;2023-03-03T03:50:31;53.07;;;35.77;;
10031;SDS011;5056;44.272;19.892;2023-03-03T03:52:58;49.57;;;34.03;;
10031;SDS011;5056;44.272;19.892;2023-03-03T03:55:25;54.73;;;37.40;;
10031;SDS011;5056;44.272;19.892;2023-03-03T03:57:52;42.57;;;31.33;;
10031;SDS011;5056;44.272;19.892;2023-03-03T04:00:21;44.80;;;30.07;;
10031;SDS011;5056;44.272;19.892;2023-03-03T04:02:47;47.57;;;32.63;;
10031;SDS011;5056;44.272;19.892;2023-03-03T04:05:16;42.23;;;31.20;;
10031;SDS011;5056;44.272;19.892;2023-03-03T04:07:46;46.10;;;31.70;;
10031;SDS011;5056;44.272;19.892;2023-03-03T04:10:12;43.40;;;30.37;;
10031;SDS011;5056;44.272;19.892;2023-03-03T04:12:39;46.33;;;33.37;;
10031;SDS011;5056;44.272;19.892;2023-03-03T04:15:07;46.07;;;31.57;;
10031;SDS011;5056;44.272;19.892;2023-03-03T04:17:35;47.40;;;34.93;;
10031;SDS011;5056;44.272;19.892;2023-03-03T04:20:02;43.00;;;29.90;;
10031;SDS011;5056;44.272;19.892;2023-03-03T04:22:30;43.87;;;32.13;;
10031;SDS011;5056;44.272;19.892;2023-03-03T04:24:59;44.63;;;33.83;;
10031;SDS011;5056;44.272;19.892;2023-03-03T04:27:29;44.23;;;33.13;;
10031;SDS011;5056;44.272;19.892;2023-03-03T04:29:56;52.17;;;37.57;;
10031;SDS011;5056;44.272;19.892;2023-03-03T04:32:23;63.03;;;46.07;;
10031;SDS011;5056;44.272;19.892;2023-03-03T04:34:51;51.27;;;37.10;;
10031;SDS011;5056;44.272;19.892;2023-03-03T04:37:18;47.87;;;34.90;;
10031;SDS011;5056;44.272;19.892;2023-03-03T04:39:44;41.57;;;31.13;;
10031;SDS011;5056;44.272;19.892;2023-03-03T04:42:15;42.40;;;30.13;;
10031;SDS011;5056;44.272;19.892;2023-03-03T04:44:42;41.10;;;29.37;;
10031;SDS011;5056;44.272;19.892;2023-03-03T04:47:11;40.50;;;30.00;;
10031;SDS011;5056;44.272;19.892;2023-03-03T04:49:38;43.67;;;31.57;;
10031;SDS011;5056;44.272;19.892;2023-03-03T04:52:05;43.10;;;32.37;;
10031;SDS011;5056;44.272;19.892;2023-03-03T04:54:33;42.93;;;30.63;;
10031;SDS011;5056;44.272;19.892;2023-03-03T04:57:00;40.90;;;33.27;;
10031;SDS011;5056;44.272;19.892;2023-03-03T04:59:30;47.57;;;36.10;;
10031;SDS011;5056;44.272;19.892;2023-03-03T05:01:57;47.27;;;35.73;;
10031;SDS011;5056;44.272;19.892;2023-03-03T05:04:23;52.60;;;35.17;;
10031;SDS011;5056;44.272;19.892;2023-03-03T05:06:51;42.10;;;32.03;;
10031;SDS011;5056;44.272;19.892;2023-03-03T05:09:18;43.43;;;31.87;;
10031;SDS011;5056;44.272;19.892;2023-03-03T05:11:45;43.03;;;31.77;;
10031;SDS011;5056;44.272;19.892;2023-03-03T05:14:12;40.60;;;31.73;;
10031;SDS011;5056;44.272;19.892;2023-03-03T05:16:48;42.83;;;31.50;;
10031;SDS011;5056;44.272;19.892;2023-03-03T05:19:15;45.20;;;33.93;;
10031;SDS011;5056;44.272;19.892;2023-03-03T05:21:41;41.83;;;32.40;;
10031;SDS011;5056;44.272;19.892;2023-03-03T05:24:10;36.93;;;29.40;;
10031;SDS011;5056;44.272;19.892;2023-03-03T05:26:37;37.57;;;30.07;;
10031;SDS011;5056;44.272;19.892;2023-03-03T05:29:05;43.33;;;31.50;;
10031;SDS011;5056;44.272;19.892;2023-03-03T05:31:32;44.03;;;33.27;;
10031;SDS011;5056;44.272;19.892;2023-03-03T05:34:03;51.07;;;38.20;;
10031;SDS011;5056;44.272;19.892;2023-03-03T05:36:29;49.50;;;36.50;;
10031;SDS011;5056;44.272;19.892;2023-03-03T05:39:11;58.60;;;40.40;;
10031;SDS011;5056;44.272;19.892;2023-03-03T05:41:39;49.13;;;36.20;;
10031;SDS011;5056;44.272;19.892;2023-03-03T05:44:06;47.90;;;35.50;;
10031;SDS011;5056;44.272;19.892;2023-03-03T05:46:34;43.43;;;33.33;;
10031;SDS011;5056;44.272;19.892;2023-03-03T05:49:03;50.07;;;37.87;;
10031;SDS011;5056;44.272;19.892;2023-03-03T05:51:29;56.30;;;40.60;;
10031;SDS011;5056;44.272;19.892;2023-03-03T05:53:56;52.27;;;40.30;;
10031;SDS011;5056;44.272;19.892;2023-03-03T05:56:23;51.50;;;37.80;;
10031;SDS011;5056;44.272;19.892;2023-03-03T05:58:50;44.23;;;35.10;;
10031;SDS011;5056;44.272;19.892;2023-03-03T06:01:17;48.17;;;36.03;;
10031;SDS011;5056;44.272;19.892;2023-03-03T06:03:44;45.57;;;35.23;;
10031;SDS011;5056;44.272;19.892;2023-03-03T06:06:13;47.30;;;35.77;;
10031;SDS011;5056;44.272;19.892;2023-03-03T06:08:41;54.70;;;39.40;;
10031;SDS011;5056;44.272;19.892;2023-03-03T06:11:07;53.20;;;38.57;;
10031;SDS011;5056;44.272;19.892;2023-03-03T06:13:34;61.37;;;40.93;;
10031;SDS011;5056;44.272;19.892;2023-03-03T06:16:02;57.27;;;44.33;;
10031;SDS011;5056;44.272;19.892;2023-03-03T06:18:29;65.13;;;45.87;;
10031;SDS011;5056;44.272;19.892;2023-03-03T06:20:56;55.33;;;40.43;;
10031;SDS011;5056;44.272;19.892;2023-03-03T06:23:26;63.30;;;45.67;;
10031;SDS011;5056;44.272;19.892;2023-03-03T06:25:53;65.67;;;43.17;;
10031;SDS011;5056;44.272;19.892;2023-03-03T06:28:20;59.57;;;40.90;;
10031;SDS011;5056;44.272;19.892;2023-03-03T06:30:51;56.70;;;41.27;;
10031;SDS011;5056;44.272;19.892;2023-03-03T06:33:18;59.30;;;42.57;;
10031;SDS011;5056;44.272;19.892;2023-03-03T06:35:48;60.40;;;39.07;;
10031;SDS011;5056;44.272;19.892;2023-03-03T06:38:15;60.77;;;38.73;;
10031;SDS011;5056;44.272;19.892;2023-03-03T06:40:45;48.67;;;36.77;;
10031;SDS011;5056;44.272;19.892;2023-03-03T06:43:18;58.10;;;39.37;;
10031;SDS011;5056;44.272;19.892;2023-03-03T06:45:45;55.47;;;39.00;;
10031;SDS011;5056;44.272;19.892;2023-03-03T06:48:13;50.60;;;37.67;;
10031;SDS011;5056;44.272;19.892;2023-03-03T06:50:40;53.07;;;37.53;;
10031;SDS011;5056;44.272;19.892;2023-03-03T06:53:09;51.07;;;37.60;;
10031;SDS011;5056;44.272;19.892;2023-03-03T06:55:37;57.20;;;40.10;;
10031;SDS011;5056;44.272;19.892;2023-03-03T06:58:10;53.13;;;37.63;;
10031;SDS011;5056;44.272;19.892;2023-03-03T07:00:39;56.27;;;40.43;;
10031;SDS011;5056;44.272;19.892;2023-03-03T07:03:11;62.40;;;43.30;;
10031;SDS011;5056;44.272;19.892;2023-03-03T07:05:40;67.00;;;45.43;;
10031;SDS011;5056;44.272;19.892;2023-03-03T07:08:09;64.23;;;44.37;;
10031;SDS011;5056;44.272;19.892;2023-03-03T07:10:41;68.27;;;45.27;;
10031;SDS011;5056;44.272;19.892;2023-03-03T07:13:17;70.40;;;46.87;;
10031;SDS011;5056;44.272;19.892;2023-03-03T07:15:45;66.20;;;43.27;;
10031;SDS011;5056;44.272;19.892;2023-03-03T07:18:21;61.03;;;43.07;;
10031;SDS011;5056;44.272;19.892;2023-03-03T07:20:51;67.40;;;45.73;;
10031;SDS011;5056;44.272;19.892;2023-03-03T07:23:20;61.83;;;42.20;;
10031;SDS011;5056;44.272;19.892;2023-03-03T07:25:49;56.03;;;40.60;;
10031;SDS011;5056;44.272;19.892;2023-03-03T07:28:21;56.90;;;40.73;;
10031;SDS011;5056;44.272;19.892;2023-03-03T07:30:49;61.80;;;43.57;;
10031;SDS011;5056;44.272;19.892;2023-03-03T07:33:18;53.53;;;39.30;;
10031;SDS011;5056;44.272;19.892;2023-03-03T07:35:48;53.00;;;38.90;;
10031;SDS011;5056;44.272;19.892;2023-03-03T07:38:19;54.03;;;39.10;;
10031;SDS011;5056;44.272;19.892;2023-03-03T07:40:50;53.20;;;40.47;;
10031;SDS011;5056;44.272;19.892;2023-03-03T07:43:28;67.83;;;50.77;;
10031;SDS011;5056;44.272;19.892;2023-03-03T07:45:57;77.53;;;55.17;;
10031;SDS011;5056;44.272;19.892;2023-03-03T07:48:30;76.03;;;54.83;;
10031;SDS011;5056;44.272;19.892;2023-03-03T07:51:02;65.20;;;47.37;;
10031;SDS011;5056;44.272;19.892;2023-03-03T07:53:30;62.63;;;49.33;;
10031;SDS011;5056;44.272;19.892;2023-03-03T07:56:01;48.40;;;37.63;;
10031;SDS011;5056;44.272;19.892;2023-03-03T07:58:34;41.90;;;32.57;;
10031;SDS011;5056;44.272;19.892;2023-03-03T08:04:15;58.50;;;46.57;;
10031;SDS011;5056;44.272;19.892;2023-03-03T08:06:49;55.50;;;42.47;;
10031;SDS011;5056;44.272;19.892;2023-03-03T08:09:29;51.33;;;40.07;;
10031;SDS011;5056;44.272;19.892;2023-03-03T08:12:09;54.77;;;39.43;;
10031;SDS011;5056;44.272;19.892;2023-03-03T08:14:57;52.87;;;39.20;;
10031;SDS011;5056;44.272;19.892;2023-03-03T08:17:37;40.20;;;31.73;;
10031;SDS011;5056;44.272;19.892;2023-03-03T08:23:13;33.37;;;27.80;;
10031;SDS011;5056;44.272;19.892;2023-03-03T08:25:44;38.77;;;31.23;;
10031;SDS011;5056;44.272;19.892;2023-03-03T08:28:12;36.43;;;28.50;;
10031;SDS011;5056;44.272;19.892;2023-03-03T08:30:41;37.57;;;30.53;;
10031;SDS011;5056;44.272;19.892;2023-03-03T08:33:08;37.83;;;31.90;;
10031;SDS011;5056;44.272;19.892;2023-03-03T08:35:35;34.80;;;29.73;;
10031;SDS011;5056;44.272;19.892;2023-03-03T08:38:02;37.77;;;30.40;;
10031;SDS011;5056;44.272;19.892;2023-03-03T08:40:33;41.23;;;33.17;;
10031;SDS011;5056;44.272;19.892;2023-03-03T08:43:01;38.50;;;31.77;;
10031;SDS011;5056;44.272;19.892;2023-03-03T08:45:29;37.33;;;31.07;;
10031;SDS011;5056;44.272;19.892;2023-03-03T08:47:58;37.30;;;30.90;;
10031;SDS011;5056;44.272;19.892;2023-03-03T08:50:28;33.93;;;29.00;;
10031;SDS011;5056;44.272;19.892;2023-03-03T08:52:56;30.20;;;25.80;;
10031;SDS011;5056;44.272;19.892;2023-03-03T08:55:24;35.60;;;28.97;;
10031;SDS011;5056;44.272;19.892;2023-03-03T08:57:50;38.87;;;30.97;;
10031;SDS011;5056;44.272;19.892;2023-03-03T09:00:18;33.23;;;29.03;;
10031;SDS011;5056;44.272;19.892;2023-03-03T09:02:45;31.97;;;26.93;;
10031;SDS011;5056;44.272;19.892;2023-03-03T09:05:15;30.07;;;26.67;;
10031;SDS011;5056;44.272;19.892;2023-03-03T09:07:44;32.00;;;27.73;;
10031;SDS011;5056;44.272;19.892;2023-03-03T09:10:13;31.33;;;27.50;;
10031;SDS011;5056;44.272;19.892;2023-03-03T09:12:43;31.30;;;27.27;;
10031;SDS011;5056;44.272;19.892;2023-03-03T09:15:14;29.43;;;26.17;;
10031;SDS011;5056;44.272;19.892;2023-03-03T09:17:44;30.17;;;26.97;;
10031;SDS011;5056;44.272;19.892;2023-03-03T09:26:22;24.53;;;21.57;;
10031;SDS011;5056;44.272;19.892;2023-03-03T09:29:14;26.47;;;23.37;;
10031;SDS011;5056;44.272;19.892;2023-03-03T09:31:44;23.63;;;21.13;;
10031;SDS011;5056;44.272;19.892;2023-03-03T09:34:19;26.33;;;22.53;;
10031;SDS011;5056;44.272;19.892;2023-03-03T09:36:49;25.77;;;22.37;;
10031;SDS011;5056;44.272;19.892;2023-03-03T09:39:18;21.17;;;19.07;;
10031;SDS011;5056;44.272;19.892;2023-03-03T09:47:48;23.47;;;20.97;;
10031;SDS011;5056;44.272;19.892;2023-03-03T09:50:25;23.63;;;20.60;;
10031;SDS011;5056;44.272;19.892;2023-03-03T09:53:00;22.40;;;19.90;;
10031;SDS011;5056;44.272;19.892;2023-03-03T09:55:37;20.83;;;18.73;;
10031;SDS011;5056;44.272;19.892;2023-03-03T09:58:13;19.93;;;18.03;;
10031;SDS011;5056;44.272;19.892;2023-03-03T10:00:50;21.40;;;19.20;;
10031;SDS011;5056;44.272;19.892;2023-03-03T10:06:27;21.57;;;19.27;;
10031;SDS011;5056;44.272;19.892;2023-03-03T10:09:14;20.43;;;18.43;;
10031;SDS011;5056;44.272;19.892;2023-03-03T10:11:58;18.67;;;16.87;;
10031;SDS011;5056;44.272;19.892;2023-03-03T10:14:44;18.93;;;17.03;;
10031;SDS011;5056;44.272;19.892;2023-03-03T10:17:24;19.60;;;17.57;;
10031;SDS011;5056;44.272;19.892;2023-03-03T10:20:13;20.50;;;18.37;;
10031;SDS011;5056;44.272;19.892;2023-03-03T10:22:48;20.93;;;18.73;;
10031;SDS011;5056;44.272;19.892;2023-03-03T10:28:21;20.23;;;18.13;;
10031;SDS011;5056;44.272;19.892;2023-03-03T10:30:59;21.43;;;19.27;;
10031;SDS011;5056;44.272;19.892;2023-03-03T10:33:31;21.57;;;19.43;;
10031;SDS011;5056;44.272;19.892;2023-03-03T10:36:17;21.20;;;19.03;;
10031;SDS011;5056;44.272;19.892;2023-03-03T10:41:59;36.70;;;31.67;;
10031;SDS011;5056;44.272;19.892;2023-03-03T10:44:46;33.63;;;29.50;;
10031;SDS011;5056;44.272;19.892;2023-03-03T10:50:20;35.10;;;30.40;;
10031;SDS011;5056;44.272;19.892;2023-03-03T10:52:54;42.37;;;36.90;;
10031;SDS011;5056;44.272;19.892;2023-03-03T10:55:34;42.23;;;37.63;;
10031;SDS011;5056;44.272;19.892;2023-03-03T10:58:11;43.03;;;37.73;;
10031;SDS011;5056;44.272;19.892;2023-03-03T11:00:46;78.67;;;60.70;;
10031;SDS011;5056;44.272;19.892;2023-03-03T11:06:21;46.10;;;37.97;;
10031;SDS011;5056;44.272;19.892;2023-03-03T11:08:51;42.73;;;32.33;;
10031;SDS011;5056;44.272;19.892;2023-03-03T11:11:24;38.53;;;32.43;;
10031;SDS011;5056;44.272;19.892;2023-03-03T11:14:01;85.80;;;68.50;;
10031;SDS011;5056;44.272;19.892;2023-03-03T11:16:33;34.23;;;30.53;;
10031;SDS011;5056;44.272;19.892;2023-03-03T11:19:06;28.97;;;25.07;;
10031;SDS011;5056;44.272;19.892;2023-03-03T11:21:44;28.87;;;25.90;;
10031;SDS011;5056;44.272;19.892;2023-03-03T11:24:23;25.80;;;23.20;;
10031;SDS011;5056;44.272;19.892;2023-03-03T11:27:18;29.30;;;25.63;;
10031;SDS011;5056;44.272;19.892;2023-03-03T11:30:08;28.40;;;25.33;;
10031;SDS011;5056;44.272;19.892;2023-03-03T11:32:45;29.63;;;24.57;;
10031;SDS011;5056;44.272;19.892;2023-03-03T11:35:24;28.43;;;24.90;;
10031;SDS011;5056;44.272;19.892;2023-03-03T11:37:56;29.70;;;26.57;;
10031;SDS011;5056;44.272;19.892;2023-03-03T11:40:40;36.97;;;30.27;;
10031;SDS011;5056;44.272;19.892;2023-03-03T11:43:24;29.50;;;26.37;;
10031;SDS011;5056;44.272;19.892;2023-03-03T11:45:56;30.10;;;26.87;;
10031;SDS011;5056;44.272;19.892;2023-03-03T11:48:29;30.47;;;26.70;;
10031;SDS011;5056;44.272;19.892;2023-03-03T11:51:02;34.87;;;29.90;;
10031;SDS011;5056;44.272;19.892;2023-03-03T11:53:36;35.83;;;30.23;;
10031;SDS011;5056;44.272;19.892;2023-03-03T11:56:13;28.57;;;24.53;;
10031;SDS011;5056;44.272;19.892;2023-03-03T11:58:49;34.43;;;27.50;;
10031;SDS011;5056;44.272;19.892;2023-03-03T12:01:27;33.27;;;26.47;;
10031;SDS011;5056;44.272;19.892;2023-03-03T12:03:57;29.50;;;24.47;;
10031;SDS011;5056;44.272;19.892;2023-03-03T12:06:28;40.97;;;30.40;;
10031;SDS011;5056;44.272;19.892;2023-03-03T12:09:03;35.83;;;26.87;;
10031;SDS011;5056;44.272;19.892;2023-03-03T12:11:46;38.57;;;27.47;;
10031;SDS011;5056;44.272;19.892;2023-03-03T12:14:18;40.13;;;30.63;;
10031;SDS011;5056;44.272;19.892;2023-03-03T12:16:55;39.13;;;30.53;;
10031;SDS011;5056;44.272;19.892;2023-03-03T12:19:24;43.90;;;32.37;;
10031;SDS011;5056;44.272;19.892;2023-03-03T12:22:17;34.33;;;27.37;;
10031;SDS011;5056;44.272;19.892;2023-03-03T12:25:08;32.77;;;26.73;;
10031;SDS011;5056;44.272;19.892;2023-03-03T12:27:44;29.27;;;22.67;;
10031;SDS011;5056;44.272;19.892;2023-03-03T12:30:19;36.70;;;27.57;;
10031;SDS011;5056;44.272;19.892;2023-03-03T12:33:16;47.97;;;35.20;;
10031;SDS011;5056;44.272;19.892;2023-03-03T12:35:54;51.00;;;35.87;;
10031;SDS011;5056;44.272;19.892;2023-03-03T12:38:30;49.43;;;36.33;;
10031;SDS011;5056;44.272;19.892;2023-03-03T12:41:04;60.10;;;40.00;;
10031;SDS011;5056;44.272;19.892;2023-03-03T12:43:38;34.50;;;27.47;;
10031;SDS011;5056;44.272;19.892;2023-03-03T12:46:12;55.33;;;36.60;;
10031;SDS011;5056;44.272;19.892;2023-03-03T12:51:34;43.97;;;31.20;;
10031;SDS011;5056;44.272;19.892;2023-03-03T12:54:14;58.57;;;39.37;;
10031;SDS011;5056;44.272;19.892;2023-03-03T12:56:47;63.60;;;43.23;;
10031;SDS011;5056;44.272;19.892;2023-03-03T12:59:18;67.90;;;45.73;;
10031;SDS011;5056;44.272;19.892;2023-03-03T13:01:51;65.30;;;48.03;;
10031;SDS011;5056;44.272;19.892;2023-03-03T13:04:32;56.80;;;40.27;;
10031;SDS011;5056;44.272;19.892;2023-03-03T13:10:00;51.73;;;38.10;;
10031;SDS011;5056;44.272;19.892;2023-03-03T13:12:33;56.10;;;42.37;;
10031;SDS011;5056;44.272;19.892;2023-03-03T13:15:06;47.03;;;36.73;;
10031;SDS011;5056;44.272;19.892;2023-03-03T13:17:41;53.67;;;38.03;;
10031;SDS011;5056;44.272;19.892;2023-03-03T13:20:18;43.70;;;31.57;;
10031;SDS011;5056;44.272;19.892;2023-03-03T13:22:52;44.60;;;32.27;;
10031;SDS011;5056;44.272;19.892;2023-03-03T13:25:30;49.43;;;37.53;;
10031;SDS011;5056;44.272;19.892;2023-03-03T13:28:01;52.70;;;39.27;;
10031;SDS011;5056;44.272;19.892;2023-03-03T13:30:33;61.67;;;46.93;;
10031;SDS011;5056;44.272;19.892;2023-03-03T13:33:01;62.70;;;47.27;;
10031;SDS011;5056;44.272;19.892;2023-03-03T13:35:37;69.07;;;49.90;;
10031;SDS011;5056;44.272;19.892;2023-03-03T13:38:08;61.93;;;44.40;;
10031;SDS011;5056;44.272;19.892;2023-03-03T13:40:39;68.00;;;45.63;;
10031;SDS011;5056;44.272;19.892;2023-03-03T13:43:13;59.13;;;42.20;;
10031;SDS011;5056;44.272;19.892;2023-03-03T13:45:48;52.37;;;39.77;;
10031;SDS011;5056;44.272;19.892;2023-03-03T13:48:24;52.23;;;38.80;;
10031;SDS011;5056;44.272;19.892;2023-03-03T13:50:58;55.17;;;40.43;;
10031;SDS011;5056;44.272;19.892;2023-03-03T13:53:33;49.77;;;35.13;;
10031;SDS011;5056;44.272;19.892;2023-03-03T13:56:08;45.83;;;33.53;;
10031;SDS011;5056;44.272;19.892;2023-03-03T13:58:41;45.33;;;34.53;;
10031;SDS011;5056;44.272;19.892;2023-03-03T14:01:12;47.33;;;33.33;;
10031;SDS011;5056;44.272;19.892;2023-03-03T14:03:48;52.33;;;44.63;;
10031;SDS011;5056;44.272;19.892;2023-03-03T14:06:30;46.17;;;34.93;;
10031;SDS011;5056;44.272;19.892;2023-03-03T14:11:48;49.43;;;36.63;;
10031;SDS011;5056;44.272;19.892;2023-03-03T14:14:23;45.00;;;33.50;;
10031;SDS011;5056;44.272;19.892;2023-03-03T14:17:16;43.93;;;31.80;;
10031;SDS011;5056;44.272;19.892;2023-03-03T14:19:55;41.33;;;30.17;;
10031;SDS011;5056;44.272;19.892;2023-03-03T14:25:04;38.73;;;28.23;;
10031;SDS011;5056;44.272;19.892;2023-03-03T14:27:35;40.70;;;30.00;;
10031;SDS011;5056;44.272;19.892;2023-03-03T14:33:15;41.47;;;28.97;;
10031;SDS011;5056;44.272;19.892;2023-03-03T14:35:47;39.87;;;30.73;;
10031;SDS011;5056;44.272;19.892;2023-03-03T14:38:23;38.03;;;29.37;;
10031;SDS011;5056;44.272;19.892;2023-03-03T14:41:02;43.27;;;31.00;;
10031;SDS011;5056;44.272;19.892;2023-03-03T14:43:37;36.50;;;27.83;;
10031;SDS011;5056;44.272;19.892;2023-03-03T14:49:06;39.63;;;29.90;;
10031;SDS011;5056;44.272;19.892;2023-03-03T14:51:41;40.67;;;29.13;;
10031;SDS011;5056;44.272;19.892;2023-03-03T14:54:15;46.63;;;33.27;;
10031;SDS011;5056;44.272;19.892;2023-03-03T14:59:38;53.23;;;38.10;;
10031;SDS011;5056;44.272;19.892;2023-03-03T15:05:18;54.33;;;39.17;;
10031;SDS011;5056;44.272;19.892;2023-03-03T15:07:47;56.27;;;40.87;;
10031;SDS011;5056;44.272;19.892;2023-03-03T15:10:27;56.93;;;39.73;;
10031;SDS011;5056;44.272;19.892;2023-03-03T15:16:00;73.50;;;50.53;;
10031;SDS011;5056;44.272;19.892;2023-03-03T15:18:35;71.07;;;50.67;;
10031;SDS011;5056;44.272;19.892;2023-03-03T15:21:19;65.70;;;45.13;;
10031;SDS011;5056;44.272;19.892;2023-03-03T15:23:54;56.80;;;42.10;;
10031;SDS011;5056;44.272;19.892;2023-03-03T15:26:27;59.13;;;44.47;;
10031;SDS011;5056;44.272;19.892;2023-03-03T15:28:58;57.07;;;42.50;;
10031;SDS011;5056;44.272;19.892;2023-03-03T15:31:38;58.90;;;42.40;;
10031;SDS011;5056;44.272;19.892;2023-03-03T15:34:18;50.70;;;37.37;;
10031;SDS011;5056;44.272;19.892;2023-03-03T15:36:53;53.77;;;37.03;;
10031;SDS011;5056;44.272;19.892;2023-03-03T15:39:27;56.53;;;40.90;;
10031;SDS011;5056;44.272;19.892;2023-03-03T15:41:59;58.13;;;43.30;;
10031;SDS011;5056;44.272;19.892;2023-03-03T15:44:31;53.00;;;38.97;;
10031;SDS011;5056;44.272;19.892;2023-03-03T15:47:11;46.17;;;35.87;;
10031;SDS011;5056;44.272;19.892;2023-03-03T15:50:00;44.47;;;32.10;;
10031;SDS011;5056;44.272;19.892;2023-03-03T15:52:46;48.87;;;33.43;;
10031;SDS011;5056;44.272;19.892;2023-03-03T15:55:25;41.40;;;32.60;;
10031;SDS011;5056;44.272;19.892;2023-03-03T15:58:19;48.77;;;36.30;;
10031;SDS011;5056;44.272;19.892;2023-03-03T16:00:56;81.13;;;60.27;;